Time;durP1;ratioP1;P1;durP2;ratioP2;P2;SDS_P1;SDS_P2;PMS_P1;PMS_P2;Temp;Humidity;BMP_temperature;BMP_pressure;BME280_temperature;BME280_humidity;BME280_pressure;Samples;Min_cycle;Max_cycle;Signal;HPM_P1;HPM_P2
2022/02/22 00:00:14;;;;;;;8.60;3.50;;;;;;;;;;753212;185;630494;-61
2022/02/22 00:02:40;;;;;;;6.10;2.75;;;;;;;;;;766929;184;617331;-61
2022/02/22 00:05:06;;;;;;;8.90;1.97;;;;;;;;;;764347;184;630095;-61
2022/02/22 00:07:32;;;;;;;4.67;2.07;;;;;;;;;;756915;184;626913;-61
2022/02/22 00:09:58;;;;;;;7.80;2.25;;;;;;;;;;744195;184;634089;-60
2022/02/22 00:12:23;;;;;;;6.63;2.20;;;;;;;;;;754181;183;624239;-60
2022/02/22 00:14:49;;;;;;;7.97;2.43;;;;;;;;;;752708;183;625989;-60
2022/02/22 00:17:15;;;;;;;5.27;2.43;;;;;;;;;;755938;183;634502;-61
2022/02/22 00:19:41;;;;;;;4.77;2.60;;;;;;;;;;766110;183;624245;-60
2022/02/22 00:22:07;;;;;;;6.50;2.27;;;;;;;;;;758819;183;638992;-60
2022/02/22 00:24:33;;;;;;;13.53;2.80;;;;;;;;;;757536;183;632712;-61
2022/02/22 00:27:00;;;;;;;6.63;2.90;;;;;;;;;;756947;184;638288;-61
2022/02/22 00:29:25;;;;;;;4.47;1.60;;;;;;;;;;751932;183;1613191;-61
2022/02/22 00:31:51;;;;;;;6.33;2.40;;;;;;;;;;753761;184;628768;-60
2022/02/22 00:34:17;;;;;;;8.13;2.00;;;;;;;;;;754838;183;627177;-63
2022/02/22 00:36:44;;;;;;;7.40;2.23;;;;;;;;;;764007;184;640959;-61
2022/02/22 00:39:10;;;;;;;5.17;2.73;;;;;;;;;;762414;184;625783;-61
2022/02/22 00:41:36;;;;;;;10.20;2.85;;;;;;;;;;760787;184;634876;-61
2022/02/22 00:44:01;;;;;;;6.27;2.10;;;;;;;;;;759089;184;617018;-60
2022/02/22 00:46:27;;;;;;;6.80;2.20;;;;;;;;;;765578;184;628353;-60
2022/02/22 00:48:53;;;;;;;9.23;2.60;;;;;;;;;;754085;185;635989;-60
2022/02/22 00:51:19;;;;;;;7.13;2.40;;;;;;;;;;766362;184;624796;-62
2022/02/22 00:53:45;;;;;;;5.10;2.10;;;;;;;;;;762087;184;641064;-61
2022/02/22 00:56:10;;;;;;;5.40;2.50;;;;;;;;;;747213;185;623277;-60
2022/02/22 00:58:36;;;;;;;3.67;2.10;;;;;;;;;;742430;185;630023;-60
2022/02/22 01:01:02;;;;;;;6.10;2.30;;;;;;;;;;755169;184;627644;-60
2022/02/22 01:03:28;;;;;;;4.87;2.00;;;;;;;;;;752817;184;643232;-60
2022/02/22 01:05:54;;;;;;;13.33;2.20;;;;;;;;;;760970;184;614662;-60
2022/02/22 01:08:20;;;;;;;4.93;2.20;;;;;;;;;;763473;184;629264;-60
2022/02/22 01:10:45;;;;;;;5.33;2.40;;;;;;;;;;750349;185;633482;-62
2022/02/22 01:13:11;;;;;;;7.20;2.90;;;;;;;;;;751561;183;623603;-61
2022/02/22 01:15:37;;;;;;;5.37;2.23;;;;;;;;;;754416;184;620438;-61
2022/02/22 01:18:03;;;;;;;6.10;2.13;;;;;;;;;;750966;184;623413;-60
2022/02/22 01:20:29;;;;;;;5.17;2.13;;;;;;;;;;751382;186;627131;-59
2022/02/22 01:22:56;;;;;;;3.75;2.17;;;;;;;;;;764919;184;622813;-60
2022/02/22 01:25:21;;;;;;;4.10;2.10;;;;;;;;;;766873;183;624888;-61
2022/02/22 01:27:47;;;;;;;8.65;1.77;;;;;;;;;;763534;183;635667;-61
2022/02/22 01:30:13;;;;;;;4.13;2.00;;;;;;;;;;756763;183;621249;-60
2022/02/22 01:32:39;;;;;;;3.77;1.80;;;;;;;;;;770466;183;619532;-61
2022/02/22 01:35:05;;;;;;;6.07;1.83;;;;;;;;;;749461;183;625616;-60
2022/02/22 01:37:30;;;;;;;9.73;2.27;;;;;;;;;;750919;183;630241;-60
2022/02/22 01:39:56;;;;;;;5.10;1.73;;;;;;;;;;769826;183;640451;-60
2022/02/22 01:42:22;;;;;;;8.67;2.00;;;;;;;;;;762126;184;769097;-61
2022/02/22 01:44:48;;;;;;;3.90;1.53;;;;;;;;;;754103;185;630888;-60
2022/02/22 01:47:16;;;;;;;4.90;2.07;;;;;;;;;;753520;184;632798;-61
2022/02/22 01:49:41;;;;;;;3.80;1.70;;;;;;;;;;755671;183;625248;-61
2022/02/22 01:52:07;;;;;;;5.27;2.33;;;;;;;;;;758756;184;626441;-61
2022/02/22 01:54:33;;;;;;;7.23;2.73;;;;;;;;;;757087;184;636697;-61
2022/02/22 01:56:58;;;;;;;3.10;1.90;;;;;;;;;;750695;183;613141;-61
2022/02/22 01:59:24;;;;;;;2.80;1.60;;;;;;;;;;752834;186;636478;-61
2022/02/22 02:01:50;;;;;;;6.63;2.00;;;;;;;;;;752877;184;636874;-60
2022/02/22 02:04:16;;;;;;;5.70;2.00;;;;;;;;;;765704;184;632959;-60
2022/02/22 02:06:42;;;;;;;5.43;2.20;;;;;;;;;;766223;184;628703;-61
2022/02/22 02:09:08;;;;;;;5.87;2.53;;;;;;;;;;752674;184;627223;-61
2022/02/22 02:11:39;;;;;;;4.00;2.00;;;;;;;;;;758672;186;628640;-61
2022/02/22 02:14:05;;;;;;;5.13;2.30;;;;;;;;;;754934;185;627045;-61
2022/02/22 02:16:31;;;;;;;4.40;1.80;;;;;;;;;;753708;184;633354;-60
2022/02/22 02:18:57;;;;;;;7.93;1.90;;;;;;;;;;751829;184;631177;-60
2022/02/22 02:21:23;;;;;;;6.77;2.47;;;;;;;;;;764749;184;626968;-60
2022/02/22 02:23:48;;;;;;;4.90;2.00;;;;;;;;;;765120;184;616060;-61
2022/02/22 02:26:14;;;;;;;6.83;2.07;;;;;;;;;;753296;184;633585;-61
2022/02/22 02:28:40;;;;;;;3.00;1.67;;;;;;;;;;757372;183;630163;-61
2022/02/22 02:31:06;;;;;;;3.63;2.03;;;;;;;;;;751698;184;632661;-61
2022/02/22 02:33:32;;;;;;;5.00;2.10;;;;;;;;;;750773;184;623847;-62
2022/02/22 02:35:58;;;;;;;3.33;1.93;;;;;;;;;;761091;184;631268;-61
2022/02/22 02:38:23;;;;;;;3.77;2.23;;;;;;;;;;766320;183;627617;-61
2022/02/22 02:40:49;;;;;;;6.60;2.40;;;;;;;;;;764398;183;625228;-60
2022/02/22 02:43:15;;;;;;;3.07;2.10;;;;;;;;;;758346;183;628363;-61
2022/02/22 02:45:41;;;;;;;2.40;1.63;;;;;;;;;;758191;184;614721;-60
2022/02/22 02:48:07;;;;;;;2.60;1.90;;;;;;;;;;761603;183;770356;-61
2022/02/22 02:50:33;;;;;;;2.27;1.73;;;;;;;;;;759127;183;621383;-61
2022/02/22 02:52:58;;;;;;;2.80;1.90;;;;;;;;;;754228;184;635353;-61
2022/02/22 02:55:24;;;;;;;3.80;1.63;;;;;;;;;;755433;183;641636;-62
2022/02/22 02:57:50;;;;;;;2.97;1.87;;;;;;;;;;755522;183;625092;-61
2022/02/22 03:00:16;;;;;;;2.87;1.80;;;;;;;;;;759226;183;615755;-61
2022/02/22 03:02:42;;;;;;;2.83;1.83;;;;;;;;;;764082;184;638724;-61
2022/02/22 03:05:09;;;;;;;2.60;1.80;;;;;;;;;;764037;184;625010;-62
2022/02/22 03:07:34;;;;;;;2.77;1.80;;;;;;;;;;752846;184;622513;-61
2022/02/22 03:10:00;;;;;;;3.20;1.87;;;;;;;;;;773560;181;613337;-60
2022/02/22 03:12:25;;;;;;;4.53;2.07;;;;;;;;;;751606;184;630661;-61
2022/02/22 03:14:52;;;;;;;2.23;1.60;;;;;;;;;;764083;184;636019;-62
2022/02/22 03:17:17;;;;;;;2.67;1.87;;;;;;;;;;768567;184;614274;-62
2022/02/22 03:19:43;;;;;;;2.00;1.27;;;;;;;;;;757398;184;617697;-61
2022/02/22 03:22:09;;;;;;;2.77;1.70;;;;;;;;;;750766;183;636172;-61
2022/02/22 03:24:35;;;;;;;2.80;1.70;;;;;;;;;;760805;184;619394;-60
2022/02/22 03:27:00;;;;;;;2.00;1.20;;;;;;;;;;761838;184;617249;-61
2022/02/22 03:29:26;;;;;;;2.23;1.40;;;;;;;;;;758706;184;620116;-62
2022/02/22 03:31:52;;;;;;;2.13;1.23;;;;;;;;;;755999;185;640216;-61
2022/02/22 03:34:18;;;;;;;2.83;1.40;;;;;;;;;;761114;183;633842;-62
2022/02/22 03:36:44;;;;;;;1.90;1.30;;;;;;;;;;755028;183;628103;-61
2022/02/22 03:39:10;;;;;;;2.53;1.17;;;;;;;;;;749100;184;614931;-61
2022/02/22 03:41:35;;;;;;;3.20;1.23;;;;;;;;;;766799;184;637867;-61
2022/02/22 03:44:01;;;;;;;2.53;1.00;;;;;;;;;;762827;184;623515;-61
2022/02/22 03:46:27;;;;;;;2.30;1.40;;;;;;;;;;758887;184;627227;-61
2022/02/22 03:48:53;;;;;;;2.10;1.03;;;;;;;;;;759458;182;615117;-61
2022/02/22 03:51:19;;;;;;;2.40;1.10;;;;;;;;;;765947;183;691840;-60
2022/02/22 03:53:45;;;;;;;5.10;1.43;;;;;;;;;;756544;183;630160;-62
2022/02/22 03:56:10;;;;;;;2.40;1.43;;;;;;;;;;766117;183;613720;-61
2022/02/22 03:58:36;;;;;;;1.80;1.00;;;;;;;;;;755091;184;635373;-61
2022/02/22 04:01:02;;;;;;;3.20;1.17;;;;;;;;;;751395;183;706315;-60
2022/02/22 04:03:28;;;;;;;2.30;1.10;;;;;;;;;;754870;183;703584;-60
2022/02/22 04:05:54;;;;;;;2.60;1.43;;;;;;;;;;762738;183;614876;-61
2022/02/22 04:08:20;;;;;;;4.30;1.57;;;;;;;;;;756810;184;634208;-61
2022/02/22 04:10:45;;;;;;;3.47;1.50;;;;;;;;;;755716;185;636184;-61
2022/02/22 04:13:11;;;;;;;5.53;1.90;;;;;;;;;;759587;185;637145;-61
2022/02/22 04:15:37;;;;;;;2.70;1.00;;;;;;;;;;757445;183;640401;-61
2022/02/22 04:18:03;;;;;;;3.37;1.40;;;;;;;;;;746414;185;648527;-61
2022/02/22 04:20:29;;;;;;;2.77;1.43;;;;;;;;;;759811;184;632461;-60
2022/02/22 04:22:55;;;;;;;2.20;1.20;;;;;;;;;;757914;183;626960;-61
2022/02/22 04:25:20;;;;;;;2.37;1.30;;;;;;;;;;747647;184;629587;-61
2022/02/22 04:27:46;;;;;;;3.10;1.40;;;;;;;;;;760646;184;624954;-61
2022/02/22 04:30:12;;;;;;;2.30;1.20;;;;;;;;;;758121;184;637301;-61
2022/02/22 04:32:38;;;;;;;3.13;1.20;;;;;;;;;;757369;184;630091;-61
2022/02/22 04:35:04;;;;;;;2.73;1.30;;;;;;;;;;764613;184;624372;-61
2022/02/22 04:37:30;;;;;;;2.87;1.10;;;;;;;;;;752622;183;618632;-62
2022/02/22 04:39:58;;;;;;;3.08;1.00;;;;;;;;;;748626;184;925598;-61
2022/02/22 04:42:22;;;;;;;2.53;1.00;;;;;;;;;;755677;184;635065;-61
2022/02/22 04:44:48;;;;;;;2.33;0.97;;;;;;;;;;756156;184;633952;-61
2022/02/22 04:47:13;;;;;;;2.67;1.10;;;;;;;;;;756192;184;624181;-61
2022/02/22 04:49:39;;;;;;;1.90;1.10;;;;;;;;;;755559;184;623257;-61
2022/02/22 04:52:05;;;;;;;3.30;1.40;;;;;;;;;;755525;184;618669;-61
2022/02/22 04:54:31;;;;;;;2.00;1.10;;;;;;;;;;754773;184;627177;-61
2022/02/22 04:56:57;;;;;;;3.30;1.23;;;;;;;;;;760793;184;628899;-61
2022/02/22 04:59:24;;;;;;;2.40;1.30;;;;;;;;;;754213;184;634971;-60
2022/02/22 05:01:49;;;;;;;6.80;1.40;;;;;;;;;;767579;180;622752;-61
2022/02/22 05:04:14;;;;;;;2.27;1.30;;;;;;;;;;759300;183;639335;-61
2022/02/22 05:06:40;;;;;;;4.40;2.23;;;;;;;;;;756636;183;626828;-61
2022/02/22 05:09:07;;;;;;;6.77;3.13;;;;;;;;;;759571;184;618328;-61
2022/02/22 05:11:32;;;;;;;7.53;2.70;;;;;;;;;;754373;184;642907;-61
2022/02/22 05:13:58;;;;;;;4.90;1.53;;;;;;;;;;756330;184;621542;-61
2022/02/22 05:16:24;;;;;;;4.33;1.70;;;;;;;;;;757981;183;683671;-61
2022/02/22 05:18:50;;;;;;;2.57;1.33;;;;;;;;;;754215;184;636463;-60
2022/02/22 05:21:15;;;;;;;3.50;1.57;;;;;;;;;;758152;184;636697;-61
2022/02/22 05:23:41;;;;;;;4.70;1.60;;;;;;;;;;765870;184;636042;-62
2022/02/22 05:26:09;;;;;;;2.90;1.53;;;;;;;;;;752907;184;639576;-61
2022/02/22 05:28:33;;;;;;;5.30;1.93;;;;;;;;;;751627;183;621584;-61
2022/02/22 05:30:59;;;;;;;2.60;1.60;;;;;;;;;;751690;184;623942;-60
2022/02/22 05:33:25;;;;;;;3.30;1.63;;;;;;;;;;758476;183;618308;-60
2022/02/22 05:35:50;;;;;;;4.20;2.33;;;;;;;;;;756019;183;740469;-60
2022/02/22 05:38:16;;;;;;;4.83;2.50;;;;;;;;;;751680;183;632079;-60
2022/02/22 05:40:42;;;;;;;8.70;4.00;;;;;;;;;;756424;184;645085;-59
2022/02/22 05:43:08;;;;;;;6.93;3.50;;;;;;;;;;753162;184;628741;-59
2022/02/22 05:45:34;;;;;;;11.33;4.03;;;;;;;;;;752681;183;630944;-61
2022/02/22 05:48:00;;;;;;;7.43;4.00;;;;;;;;;;757556;184;623288;-60
2022/02/22 05:50:26;;;;;;;7.13;3.67;;;;;;;;;;757986;184;775277;-61
2022/02/22 05:52:53;;;;;;;7.73;3.60;;;;;;;;;;759642;184;635142;-62
2022/02/22 05:55:18;;;;;;;6.33;2.77;;;;;;;;;;753129;184;675846;-60
2022/02/22 05:57:44;;;;;;;3.90;2.13;;;;;;;;;;755208;182;633566;-61
2022/02/22 06:00:10;;;;;;;3.00;1.73;;;;;;;;;;758037;184;618514;-61
2022/02/22 06:02:36;;;;;;;3.60;1.93;;;;;;;;;;753523;184;636869;-60
2022/02/22 06:05:02;;;;;;;3.57;1.93;;;;;;;;;;761028;184;627349;-61
2022/02/22 06:07:29;;;;;;;4.10;1.80;;;;;;;;;;758923;184;637544;-61
2022/02/22 06:09:53;;;;;;;3.10;1.97;;;;;;;;;;755486;184;632566;-61
2022/02/22 06:12:19;;;;;;;2.70;1.70;;;;;;;;;;752168;184;634838;-61
2022/02/22 06:14:45;;;;;;;2.73;1.80;;;;;;;;;;755144;183;615620;-62
2022/02/22 06:17:11;;;;;;;2.43;1.90;;;;;;;;;;760233;183;628331;-62
2022/02/22 06:19:37;;;;;;;4.60;2.00;;;;;;;;;;760648;185;642009;-62
2022/02/22 06:22:04;;;;;;;3.27;1.90;;;;;;;;;;755897;183;628164;-62
2022/02/22 06:24:29;;;;;;;2.70;1.80;;;;;;;;;;758753;183;625343;-61
2022/02/22 06:26:54;;;;;;;4.60;2.60;;;;;;;;;;755892;184;629598;-62
2022/02/22 06:29:20;;;;;;;3.07;2.03;;;;;;;;;;756087;184;623373;-63
2022/02/22 06:31:47;;;;;;;4.07;2.30;;;;;;;;;;756000;183;638479;-63
2022/02/22 06:34:12;;;;;;;5.57;2.13;;;;;;;;;;756185;184;619264;-62
2022/02/22 06:36:38;;;;;;;6.27;2.63;;;;;;;;;;756847;184;623306;-62
2022/02/22 06:39:04;;;;;;;5.10;2.23;;;;;;;;;;765708;183;624037;-60
2022/02/22 06:41:29;;;;;;;5.00;2.57;;;;;;;;;;752391;184;613069;-61
2022/02/22 06:43:55;;;;;;;4.70;2.60;;;;;;;;;;755103;184;614908;-61
2022/02/22 06:46:21;;;;;;;6.03;2.57;;;;;;;;;;765053;184;616232;-60
2022/02/22 06:48:48;;;;;;;5.33;2.20;;;;;;;;;;763866;184;616419;-61
2022/02/22 06:51:14;;;;;;;6.73;2.67;;;;;;;;;;748931;184;632360;-60
2022/02/22 06:53:40;;;;;;;4.20;2.60;;;;;;;;;;768437;182;693030;-60
2022/02/22 06:56:06;;;;;;;8.23;2.73;;;;;;;;;;753011;184;626734;-60
2022/02/22 06:58:31;;;;;;;5.23;2.53;;;;;;;;;;759299;184;617229;-61
2022/02/22 07:00:58;;;;;;;9.93;3.50;;;;;;;;;;752481;187;615619;-60
2022/02/22 07:03:23;;;;;;;5.40;2.80;;;;;;;;;;752739;183;618989;-60
2022/02/22 07:05:49;;;;;;;5.97;3.20;;;;;;;;;;757917;184;634361;-60
2022/02/22 07:08:15;;;;;;;5.73;2.83;;;;;;;;;;759304;184;635450;-60
2022/02/22 07:10:41;;;;;;;6.27;3.50;;;;;;;;;;751150;186;635406;-63
2022/02/22 07:13:06;;;;;;;8.50;3.40;;;;;;;;;;752611;184;639063;-59
2022/02/22 07:15:32;;;;;;;10.50;3.40;;;;;;;;;;758621;184;629018;-60
2022/02/22 07:17:58;;;;;;;8.60;3.70;;;;;;;;;;752777;184;641639;-61
2022/02/22 07:20:24;;;;;;;7.00;3.63;;;;;;;;;;763918;184;636194;-61
2022/02/22 07:22:50;;;;;;;7.33;4.17;;;;;;;;;;767297;183;626420;-60
2022/02/22 07:25:16;;;;;;;6.47;3.93;;;;;;;;;;757674;184;630287;-61
2022/02/22 07:27:44;;;;;;;6.57;3.57;;;;;;;;;;756661;183;637080;-61
2022/02/22 07:30:08;;;;;;;10.30;3.80;;;;;;;;;;751866;185;634599;-61
2022/02/22 07:32:34;;;;;;;7.57;2.97;;;;;;;;;;755967;186;629799;-60
2022/02/22 07:35:00;;;;;;;8.87;4.90;;;;;;;;;;753356;183;620721;-61
2022/02/22 07:37:26;;;;;;;6.17;3.50;;;;;;;;;;761869;184;883387;-61
2022/02/22 07:39:52;;;;;;;6.77;3.70;;;;;;;;;;754330;184;633358;-61
2022/02/22 07:42:18;;;;;;;6.53;3.90;;;;;;;;;;757899;183;639929;-61
2022/02/22 07:44:43;;;;;;;7.63;4.30;;;;;;;;;;758920;184;630453;-60
2022/02/22 07:47:09;;;;;;;7.70;3.80;;;;;;;;;;761124;183;644485;-60
2022/02/22 07:49:35;;;;;;;6.43;3.37;;;;;;;;;;761431;184;616343;-61
2022/02/22 07:52:01;;;;;;;6.73;3.97;;;;;;;;;;752614;184;626370;-60
2022/02/22 07:54:27;;;;;;;7.72;3.70;;;;;;;;;;752234;185;628973;-61
2022/02/22 07:56:53;;;;;;;7.10;3.70;;;;;;;;;;753330;184;625201;-60
2022/02/22 07:59:18;;;;;;;7.80;4.70;;;;;;;;;;756922;183;624228;-60
2022/02/22 08:01:44;;;;;;;7.13;5.33;;;;;;;;;;756333;183;631860;-60
2022/02/22 08:04:10;;;;;;;7.93;4.93;;;;;;;;;;761846;184;617008;-61
2022/02/22 08:06:36;;;;;;;8.53;4.53;;;;;;;;;;758231;184;618067;-60
2022/02/22 08:09:02;;;;;;;9.57;5.37;;;;;;;;;;752460;185;615091;-61
2022/02/22 08:11:31;;;;;;;9.93;4.37;;;;;;;;;;757045;184;618965;-61
2022/02/22 08:13:54;;;;;;;5.80;3.77;;;;;;;;;;766189;179;633195;-60
2022/02/22 08:16:20;;;;;;;5.97;4.40;;;;;;;;;;752585;183;636775;-60
2022/02/22 08:18:46;;;;;;;3.50;3.00;;;;;;;;;;756129;184;629073;-60
2022/02/22 08:21:11;;;;;;;8.30;4.17;;;;;;;;;;755258;184;634724;-60
2022/02/22 08:23:37;;;;;;;6.47;3.27;;;;;;;;;;750472;184;635740;-60
2022/02/22 08:26:04;;;;;;;10.73;4.60;;;;;;;;;;753788;184;635115;-60
2022/02/22 08:28:30;;;;;;;6.33;3.47;;;;;;;;;;755395;185;616031;-59
2022/02/22 08:30:55;;;;;;;9.07;3.70;;;;;;;;;;753772;184;627870;-59
2022/02/22 08:33:21;;;;;;;9.43;3.67;;;;;;;;;;745307;187;774338;-60
2022/02/22 08:35:47;;;;;;;6.73;4.03;;;;;;;;;;748421;188;613073;-60
2022/02/22 08:38:13;;;;;;;11.53;3.17;;;;;;;;;;755542;183;629335;-60
2022/02/22 08:40:39;;;;;;;10.10;3.50;;;;;;;;;;748436;186;630519;-60
2022/02/22 08:43:05;;;;;;;6.70;3.00;;;;;;;;;;750158;183;617013;-59
2022/02/22 08:45:31;;;;;;;7.80;3.00;;;;;;;;;;755742;186;625161;-60
2022/02/22 08:47:56;;;;;;;4.27;3.20;;;;;;;;;;753740;184;627511;-60
2022/02/22 08:50:22;;;;;;;5.32;3.70;;;;;;;;;;754554;184;634347;-60
2022/02/22 08:52:48;;;;;;;10.03;3.60;;;;;;;;;;768202;183;618375;-59
2022/02/22 08:55:14;;;;;;;6.90;3.80;;;;;;;;;;753856;185;625160;-59
2022/02/22 08:57:40;;;;;;;7.77;3.67;;;;;;;;;;754167;184;634480;-59
2022/02/22 09:00:10;;;;;;;5.83;4.10;;;;;;;;;;756864;185;628673;-60
2022/02/22 09:02:33;;;;;;;5.30;4.20;;;;;;;;;;756169;183;626087;-60
2022/02/22 09:04:59;;;;;;;7.30;4.27;;;;;;;;;;751813;184;636445;-62
2022/02/22 09:07:24;;;;;;;7.20;4.00;;;;;;;;;;751193;183;636610;-61
2022/02/22 09:09:50;;;;;;;5.87;4.40;;;;;;;;;;751103;187;624227;-60
2022/02/22 09:12:16;;;;;;;10.70;4.50;;;;;;;;;;751352;183;632015;-60
2022/02/22 09:14:42;;;;;;;6.80;4.00;;;;;;;;;;749953;184;636174;-60
2022/02/22 09:17:08;;;;;;;9.17;5.13;;;;;;;;;;757204;184;633229;-60
2022/02/22 09:19:34;;;;;;;6.40;4.50;;;;;;;;;;762780;183;636680;-60
2022/02/22 09:21:59;;;;;;;7.78;4.60;;;;;;;;;;754191;183;630192;-60
2022/02/22 09:24:25;;;;;;;5.80;4.40;;;;;;;;;;765710;184;614762;-60
2022/02/22 09:26:51;;;;;;;7.00;4.07;;;;;;;;;;753994;184;637392;-60
2022/02/22 09:29:17;;;;;;;10.00;4.77;;;;;;;;;;759328;184;691504;-60
2022/02/22 09:31:43;;;;;;;9.20;4.23;;;;;;;;;;758150;184;627134;-61
2022/02/22 09:34:09;;;;;;;14.00;4.40;;;;;;;;;;751724;184;627780;-60
2022/02/22 09:36:34;;;;;;;7.97;4.40;;;;;;;;;;763943;184;638028;-60
2022/02/22 09:39:00;;;;;;;10.80;4.70;;;;;;;;;;759170;184;617340;-60
2022/02/22 09:41:26;;;;;;;6.60;3.97;;;;;;;;;;758355;184;623448;-60
2022/02/22 09:43:52;;;;;;;8.20;4.10;;;;;;;;;;755848;184;632649;-60
2022/02/22 09:46:18;;;;;;;8.70;3.10;;;;;;;;;;757794;182;641336;-60
2022/02/22 09:48:44;;;;;;;8.07;3.57;;;;;;;;;;758099;183;698680;-59
2022/02/22 09:51:09;;;;;;;5.67;3.60;;;;;;;;;;750858;184;627424;-60
2022/02/22 09:53:37;;;;;;;8.60;3.43;;;;;;;;;;756172;183;615626;-61
2022/02/22 09:56:01;;;;;;;6.83;4.27;;;;;;;;;;765175;183;630771;-60
2022/02/22 09:58:27;;;;;;;4.50;3.70;;;;;;;;;;762528;183;633190;-60
2022/02/22 10:00:57;;;;;;;9.17;4.23;;;;;;;;;;757957;184;636429;-60
2022/02/22 10:03:22;;;;;;;7.63;4.40;;;;;;;;;;752194;184;628370;-60
2022/02/22 10:05:52;;;;;;;6.80;3.87;;;;;;;;;;766616;183;624604;-61
2022/02/22 10:08:18;;;;;;;6.97;4.30;;;;;;;;;;758784;183;637016;-61
2022/02/22 10:10:44;;;;;;;8.60;3.90;;;;;;;;;;763840;184;636156;-62
2022/02/22 10:13:10;;;;;;;5.30;3.83;;;;;;;;;;764830;184;633953;-60
2022/02/22 10:15:36;;;;;;;5.23;3.63;;;;;;;;;;751523;184;628975;-62
2022/02/22 10:18:02;;;;;;;5.60;3.87;;;;;;;;;;758531;184;624213;-60
2022/02/22 10:20:28;;;;;;;7.20;3.70;;;;;;;;;;752820;184;635293;-59
2022/02/22 10:22:54;;;;;;;12.60;3.50;;;;;;;;;;755169;184;614534;-60
2022/02/22 10:25:20;;;;;;;6.47;3.90;;;;;;;;;;743573;184;695392;-60
2022/02/22 10:27:45;;;;;;;6.40;3.40;;;;;;;;;;765079;184;637351;-60
2022/02/22 10:30:17;;;;;;;7.03;3.60;;;;;;;;;;756351;184;629066;-60
2022/02/22 10:32:43;;;;;;;7.00;4.47;;;;;;;;;;756894;183;636705;-60
2022/02/22 10:35:09;;;;;;;7.33;3.17;;;;;;;;;;752179;185;623551;-60
2022/02/22 10:37:35;;;;;;;7.03;4.00;;;;;;;;;;757681;184;626026;-59
2022/02/22 10:40:01;;;;;;;4.47;3.40;;;;;;;;;;760208;180;613964;-60
2022/02/22 10:42:26;;;;;;;6.33;3.70;;;;;;;;;;752700;185;644488;-60
2022/02/22 10:44:52;;;;;;;8.27;5.50;;;;;;;;;;750396;184;636428;-60
2022/02/22 10:47:18;;;;;;;8.53;4.77;;;;;;;;;;757319;184;620077;-60
2022/02/22 10:49:44;;;;;;;7.27;4.87;;;;;;;;;;754859;184;628488;-60
2022/02/22 10:52:11;;;;;;;8.60;4.67;;;;;;;;;;761593;184;635039;-59
2022/02/22 10:54:36;;;;;;;5.90;4.60;;;;;;;;;;755970;184;626078;-59
2022/02/22 10:57:01;;;;;;;7.77;4.80;;;;;;;;;;764620;181;619344;-60
2022/02/22 10:59:27;;;;;;;6.30;4.90;;;;;;;;;;756461;183;627674;-60
2022/02/22 11:01:53;;;;;;;8.27;5.17;;;;;;;;;;758273;184;617678;-60
2022/02/22 11:04:19;;;;;;;8.07;4.90;;;;;;;;;;753819;184;626703;-60
2022/02/22 11:06:45;;;;;;;7.20;5.00;;;;;;;;;;753230;184;668877;-60
2022/02/22 11:09:13;;;;;;;9.30;4.77;;;;;;;;;;754878;185;625655;-59
2022/02/22 11:11:45;;;;;;;12.10;4.60;;;;;;;;;;758731;184;613357;-59
2022/02/22 11:14:11;;;;;;;7.17;4.67;;;;;;;;;;761123;183;624181;-60
2022/02/22 11:16:38;;;;;;;4.33;3.73;;;;;;;;;;751853;184;623080;-59
2022/02/22 11:19:03;;;;;;;5.30;3.20;;;;;;;;;;756320;184;639585;-61
2022/02/22 11:21:29;;;;;;;9.67;3.03;;;;;;;;;;759178;184;664058;-60
2022/02/22 11:24:01;;;;;;;7.00;3.43;;;;;;;;;;759037;184;625040;-60
2022/02/22 11:26:27;;;;;;;7.00;3.10;;;;;;;;;;748953;184;625173;-60
2022/02/22 11:28:53;;;;;;;3.60;2.77;;;;;;;;;;754382;183;627406;-62
2022/02/22 11:31:18;;;;;;;3.93;2.80;;;;;;;;;;748467;186;639945;-60
2022/02/22 11:33:45;;;;;;;5.20;3.43;;;;;;;;;;749690;184;634899;-61
2022/02/22 11:36:11;;;;;;;8.63;2.30;;;;;;;;;;752421;184;673734;-60
2022/02/22 11:38:38;;;;;;;4.73;2.70;;;;;;;;;;748908;184;619312;-60
2022/02/22 11:41:06;;;;;;;6.23;2.50;;;;;;;;;;764206;184;625169;-60
2022/02/22 11:43:30;;;;;;;6.90;2.83;;;;;;;;;;752301;184;625095;-62
2022/02/22 11:45:56;;;;;;;5.73;2.77;;;;;;;;;;754305;184;618206;-60
2022/02/22 11:48:22;;;;;;;5.53;2.20;;;;;;;;;;753683;184;628612;-60
2022/02/22 11:50:48;;;;;;;4.43;2.30;;;;;;;;;;749691;184;629288;-60
2022/02/22 11:53:19;;;;;;;6.13;2.40;;;;;;;;;;760277;184;614438;-61
2022/02/22 11:55:40;;;;;;;4.30;2.10;;;;;;;;;;755306;184;627947;-61
2022/02/22 11:58:13;;;;;;;5.10;2.40;;;;;;;;;;752895;185;630463;-62
2022/02/22 12:00:40;;;;;;;5.83;2.70;;;;;;;;;;753142;184;632135;-61
2022/02/22 12:03:04;;;;;;;5.30;1.80;;;;;;;;;;760631;184;626176;-60
2022/02/22 12:05:38;;;;;;;14.17;2.17;;;;;;;;;;760495;184;629580;-61
2022/02/22 12:07:58;;;;;;;4.13;1.87;;;;;;;;;;759863;184;620526;-61
2022/02/22 12:10:24;;;;;;;4.73;3.10;;;;;;;;;;752908;186;619741;-61
2022/02/22 12:12:51;;;;;;;5.37;1.67;;;;;;;;;;752971;184;628083;-60
2022/02/22 12:15:15;;;;;;;6.47;2.05;;;;;;;;;;753816;184;615973;-60
2022/02/22 12:17:43;;;;;;;9.73;2.83;;;;;;;;;;750223;184;641884;-60
2022/02/22 12:20:07;;;;;;;4.60;2.00;;;;;;;;;;762063;183;616430;-60
2022/02/22 12:22:33;;;;;;;3.30;1.73;;;;;;;;;;767064;183;623395;-61
2022/02/22 12:24:59;;;;;;;6.83;1.90;;;;;;;;;;751068;183;624854;-60
2022/02/22 12:27:25;;;;;;;5.00;1.80;;;;;;;;;;769635;183;611998;-60
2022/02/22 12:29:51;;;;;;;6.40;1.90;;;;;;;;;;752481;184;625177;-61
2022/02/22 12:32:17;;;;;;;10.00;1.90;;;;;;;;;;753545;184;643963;-60
2022/02/22 12:34:45;;;;;;;3.73;1.60;;;;;;;;;;768076;183;614680;-60
2022/02/22 12:37:11;;;;;;;11.53;2.37;;;;;;;;;;740857;187;628709;-60
2022/02/22 12:39:37;;;;;;;2.37;1.30;;;;;;;;;;757816;185;632791;-60
2022/02/22 12:42:03;;;;;;;7.70;2.30;;;;;;;;;;751800;184;633826;-60
2022/02/22 12:44:29;;;;;;;3.87;1.50;;;;;;;;;;754050;183;615245;-60
2022/02/22 12:46:54;;;;;;;7.27;2.13;;;;;;;;;;750198;184;615819;-60
2022/02/22 12:49:20;;;;;;;4.50;2.40;;;;;;;;;;752065;184;629652;-61
2022/02/22 12:51:48;;;;;;;14.13;2.33;;;;;;;;;;761284;184;627760;-60
2022/02/22 12:54:12;;;;;;;15.73;2.50;;;;;;;;;;752667;184;637902;-60
2022/02/22 12:56:38;;;;;;;6.47;2.50;;;;;;;;;;751020;184;629314;-60
2022/02/22 12:59:04;;;;;;;16.13;2.83;;;;;;;;;;764382;184;624950;-60
2022/02/22 13:01:30;;;;;;;8.73;3.33;;;;;;;;;;761498;184;626617;-59
2022/02/22 13:03:57;;;;;;;14.07;2.90;;;;;;;;;;756284;185;650412;-61
2022/02/22 13:06:22;;;;;;;9.65;2.70;;;;;;;;;;750278;184;625317;-59
2022/02/22 13:08:48;;;;;;;5.53;2.20;;;;;;;;;;760282;185;631792;-59
2022/02/22 13:11:14;;;;;;;6.97;2.30;;;;;;;;;;754766;183;633019;-59
2022/02/22 13:13:40;;;;;;;6.37;1.80;;;;;;;;;;753171;184;626218;-60
2022/02/22 13:16:09;;;;;;;5.50;1.87;;;;;;;;;;757670;184;616867;-60
2022/02/22 13:18:35;;;;;;;7.00;2.70;;;;;;;;;;756004;184;629316;-60
2022/02/22 13:21:16;;;;;;;10.93;3.47;;;;;;;;;;756520;184;620308;-59
2022/02/22 13:23:42;;;;;;;8.20;2.60;;;;;;;;;;748183;184;629034;-59
2022/02/22 13:26:08;;;;;;;9.73;2.90;;;;;;;;;;759272;184;625368;-59
2022/02/22 13:28:33;;;;;;;9.83;2.20;;;;;;;;;;763489;183;627456;-59
2022/02/22 13:30:59;;;;;;;8.23;3.00;;;;;;;;;;760158;184;631233;-59
2022/02/22 13:33:25;;;;;;;7.20;1.83;;;;;;;;;;765833;183;630229;-59
2022/02/22 13:35:54;;;;;;;3.87;1.47;;;;;;;;;;745252;183;633327;-61
2022/02/22 13:38:20;;;;;;;4.83;1.80;;;;;;;;;;744716;187;618113;-60
2022/02/22 13:40:45;;;;;;;13.30;2.43;;;;;;;;;;755676;183;619251;-59
2022/02/22 13:43:13;;;;;;;8.07;2.40;;;;;;;;;;765017;184;627345;-58
2022/02/22 13:45:37;;;;;;;6.50;2.20;;;;;;;;;;750753;183;627490;-60
2022/02/22 13:48:03;;;;;;;8.40;2.00;;;;;;;;;;748489;183;646961;-59
2022/02/22 13:50:29;;;;;;;6.90;1.90;;;;;;;;;;759667;184;616152;-59
2022/02/22 13:52:55;;;;;;;6.87;1.70;;;;;;;;;;755911;184;633502;-61
2022/02/22 13:55:21;;;;;;;4.70;2.03;;;;;;;;;;762212;183;632864;-60
2022/02/22 13:57:48;;;;;;;5.40;2.33;;;;;;;;;;758557;184;631188;-60
2022/02/22 14:00:13;;;;;;;5.60;1.80;;;;;;;;;;763802;184;632180;-62
2022/02/22 14:02:39;;;;;;;2.77;1.50;;;;;;;;;;753211;184;623744;-61
2022/02/22 14:05:06;;;;;;;5.10;1.50;;;;;;;;;;752652;183;622312;-60
2022/02/22 14:07:30;;;;;;;7.77;2.20;;;;;;;;;;757119;184;616128;-61
2022/02/22 14:09:56;;;;;;;4.20;1.53;;;;;;;;;;754864;183;634411;-60
2022/02/22 14:12:22;;;;;;;3.47;1.90;;;;;;;;;;752821;184;625751;-60
2022/02/22 14:14:48;;;;;;;3.77;1.73;;;;;;;;;;759527;184;622964;-61
2022/02/22 14:17:14;;;;;;;8.77;3.50;;;;;;;;;;754812;184;678095;-61
2022/02/22 14:19:40;;;;;;;12.77;2.90;;;;;;;;;;755388;184;625154;-60